createdAt,value
2022-09-09T00:02:02.382Z,21.56
2022-09-09T00:04:34.911Z,21.60
2022-09-09T00:07:26.022Z,21.78
2022-09-09T00:10:21.899Z,21.85
2022-09-09T00:13:06.655Z,21.82
2022-09-09T00:15:47.863Z,21.85
2022-09-09T00:18:39.236Z,21.82
2022-09-09T00:21:12.229Z,21.80
2022-09-09T00:23:41.240Z,21.81
2022-09-09T00:26:18.570Z,21.89
2022-09-09T00:29:02.004Z,21.93
2022-09-09T00:31:31.094Z,21.86
2022-09-09T00:34:22.575Z,22.01
2022-09-09T00:36:52.278Z,21.90
2022-09-09T00:39:42.853Z,22.03
2022-09-09T00:42:15.289Z,21.95
2022-09-09T00:45:21.470Z,22.05
2022-09-09T00:47:52.006Z,21.95
2022-09-09T00:50:37.070Z,22.05
2022-09-09T00:53:25.237Z,21.99
2022-09-09T00:56:15.158Z,21.94
2022-09-09T00:58:55.537Z,21.92
2022-09-09T01:01:22.105Z,21.83
2022-09-09T01:03:56.798Z,21.89
2022-09-09T01:06:39.556Z,21.92
2022-09-09T01:09:15.367Z,21.86
2022-09-09T01:12:03.513Z,21.84
2022-09-09T01:14:43.739Z,21.85
2022-09-09T01:17:19.620Z,21.86
2022-09-09T01:19:46.222Z,21.78
2022-09-09T01:22:33.924Z,21.92
2022-09-09T01:25:19.882Z,21.94
2022-09-09T01:27:50.490Z,21.80
2022-09-09T01:30:19.141Z,21.77
2022-09-09T01:32:57.056Z,21.83
2022-09-09T01:35:32.633Z,21.74
2022-09-09T01:37:59.147Z,21.73
2022-09-09T01:40:27.418Z,21.74
2022-09-09T01:42:54.699Z,21.73
2022-09-09T01:45:22.509Z,21.73
2022-09-09T01:47:49.743Z,21.72
2022-09-09T01:50:17.386Z,21.71
2022-09-09T01:52:46.170Z,21.71
2022-09-09T01:55:13.017Z,21.70
2022-09-09T01:58:17.906Z,21.85
2022-09-09T02:00:55.142Z,21.71
2022-09-09T02:03:36.304Z,21.71
2022-09-09T02:06:22.075Z,21.61
2022-09-09T02:08:51.117Z,21.44
2022-09-09T02:11:20.712Z,21.31
2022-09-09T02:13:49.324Z,21.18
2022-09-09T02:16:20.257Z,21.11
2022-09-09T02:18:49.819Z,20.94
2022-09-09T02:21:18.447Z,20.84
2022-09-09T02:23:47.899Z,20.73
2022-09-09T02:26:21.378Z,20.65
2022-09-09T02:28:50.728Z,20.56
2022-09-09T02:31:23.072Z,20.52
2022-09-09T02:33:55.422Z,20.46
2022-09-09T02:36:25.041Z,20.33
2022-09-09T02:38:54.809Z,20.25
2022-09-09T02:41:27.131Z,20.24
2022-09-09T02:43:53.673Z,20.11
2022-09-09T02:46:26.448Z,20.48
2022-09-09T02:49:08.959Z,20.17
2022-09-09T02:52:06.782Z,20.18
2022-09-09T02:54:37.266Z,19.95
2022-09-09T02:57:06.550Z,19.92
2022-09-09T02:59:33.416Z,19.84
2022-09-09T03:02:00.252Z,19.79
2022-09-09T03:04:26.807Z,19.76
2022-09-09T03:06:53.204Z,20.12
2022-09-09T03:09:19.812Z,19.76
2022-09-09T03:11:46.508Z,19.71
2022-09-09T03:14:13.023Z,19.67
2022-09-09T03:16:39.708Z,20.03
2022-09-09T03:19:07.419Z,19.69
2022-09-09T03:21:33.947Z,19.63
2022-09-09T03:24:00.663Z,19.96
2022-09-09T03:26:27.162Z,19.66
2022-09-09T03:28:54.356Z,19.96
2022-09-09T03:31:20.905Z,19.63
2022-09-09T03:33:47.589Z,19.56
2022-09-09T03:36:14.265Z,19.54
2022-09-09T03:38:41.018Z,19.50
2022-09-09T03:41:08.842Z,19.49
2022-09-09T03:43:35.896Z,19.50
2022-09-09T03:46:02.501Z,19.52
2022-09-09T03:48:29.447Z,19.53
2022-09-09T03:51:01.736Z,19.53
2022-09-09T03:53:28.930Z,19.57
2022-09-09T03:56:01.003Z,19.61
2022-09-09T03:58:28.867Z,19.62
2022-09-09T04:00:57.960Z,19.68
2022-09-09T04:03:27.997Z,19.71
2022-09-09T04:05:56.463Z,19.75
2022-09-09T04:08:23.893Z,19.79
2022-09-09T04:10:50.770Z,19.85
2022-09-09T04:13:18.737Z,19.88
2022-09-09T04:15:51.504Z,19.92
2022-09-09T04:18:20.047Z,19.96
2022-09-09T04:20:53.759Z,20.03
2022-09-09T04:23:21.567Z,19.99
2022-09-09T04:25:55.250Z,20.06
2022-09-09T04:28:23.795Z,19.99
2022-09-09T04:30:50.561Z,19.99
2022-09-09T04:33:18.398Z,20.00
2022-09-09T04:35:47.497Z,20.03
2022-09-09T04:38:13.935Z,20.02
2022-09-09T04:40:43.909Z,20.38
2022-09-09T04:43:14.369Z,20.07
2022-09-09T04:45:41.768Z,20.07
2022-09-09T04:48:08.425Z,20.08
2022-09-09T04:50:35.299Z,20.07
2022-09-09T04:53:06.379Z,20.14
2022-09-09T04:55:34.196Z,20.10
2022-09-09T04:58:06.076Z,20.21
2022-09-09T05:00:33.360Z,20.20
2022-09-09T05:03:04.391Z,20.28
2022-09-09T05:05:31.239Z,20.28
2022-09-09T05:08:03.131Z,20.39
2022-09-09T05:10:29.707Z,20.41
2022-09-09T05:12:56.228Z,20.48
2022-09-09T05:15:22.732Z,20.56
2022-09-09T05:17:49.232Z,20.62
2022-09-09T05:20:17.572Z,20.70
2022-09-09T05:22:44.112Z,20.77
2022-09-09T05:25:10.468Z,21.16
2022-09-09T05:27:36.949Z,20.96
2022-09-09T05:30:03.505Z,21.33
2022-09-09T05:32:35.138Z,21.13
2022-09-09T05:35:02.582Z,21.16
2022-09-09T05:37:29.969Z,21.22
2022-09-09T05:39:56.526Z,21.27
2022-09-09T05:42:22.987Z,21.33
2022-09-09T05:44:49.352Z,21.72
2022-09-09T05:47:16.276Z,21.50
2022-09-09T05:49:42.722Z,21.53
2022-09-09T05:52:10.193Z,21.89
2022-09-09T05:54:38.562Z,21.66
2022-09-09T05:57:05.137Z,21.61
2022-09-09T05:59:32.301Z,21.59
2022-09-09T06:01:58.830Z,21.56
2022-09-09T06:04:25.895Z,21.52
2022-09-09T06:06:52.435Z,21.48
2022-09-09T06:09:18.858Z,21.42
2022-09-09T06:11:45.333Z,21.75
2022-09-09T06:14:11.790Z,21.37
2022-09-09T06:16:43.349Z,21.69
2022-09-09T06:19:09.845Z,21.32
2022-09-09T06:21:38.029Z,21.63
2022-09-09T06:24:05.236Z,21.28
2022-09-09T06:26:34.003Z,21.26
2022-09-09T06:29:01.868Z,21.23
2022-09-09T06:31:31.494Z,21.23
2022-09-09T06:33:59.780Z,21.25
2022-09-09T06:36:34.324Z,21.32
2022-09-09T06:39:01.683Z,21.33
2022-09-09T06:41:30.795Z,21.38
2022-09-09T06:43:57.878Z,21.43
2022-09-09T06:46:29.046Z,21.48
2022-09-09T06:48:58.258Z,21.52
2022-09-09T06:51:26.933Z,21.56
2022-09-09T06:53:55.925Z,21.55
2022-09-09T06:56:25.514Z,21.57
2022-09-09T06:58:53.239Z,21.53
2022-09-09T07:01:24.557Z,21.53
2022-09-09T07:03:53.436Z,21.52
2022-09-09T07:06:25.402Z,21.56
2022-09-09T07:08:57.134Z,21.53
2022-09-09T07:11:26.836Z,21.50
2022-09-09T07:13:53.994Z,21.48
2022-09-09T07:16:22.053Z,21.43
2022-09-09T07:18:48.510Z,21.44
2022-09-09T07:21:15.323Z,21.77
2022-09-09T07:23:42.486Z,21.47
2022-09-09T07:26:14.448Z,21.41
2022-09-09T07:28:42.280Z,21.36
2022-09-09T07:31:16.642Z,21.41
2022-09-09T07:33:44.351Z,21.32
2022-09-09T07:36:13.759Z,21.34
2022-09-09T07:38:41.867Z,21.29
2022-09-09T07:41:13.293Z,21.31
2022-09-09T07:43:41.137Z,21.31
2022-09-09T07:46:08.625Z,21.30
2022-09-09T07:48:35.555Z,21.35
2022-09-09T07:51:12.630Z,21.47
2022-09-09T07:53:39.939Z,21.75
2022-09-09T07:56:10.267Z,21.53
2022-09-09T07:58:41.339Z,21.52
2022-09-09T08:01:25.914Z,21.55
2022-09-09T08:04:02.159Z,21.55
2022-09-09T08:06:34.035Z,21.53
2022-09-09T08:09:00.837Z,21.52
2022-09-09T08:11:29.588Z,21.51
2022-09-09T08:14:01.664Z,21.52
2022-09-09T08:16:38.654Z,21.55
2022-09-09T08:19:07.496Z,21.54
2022-09-09T08:21:37.579Z,21.57
2022-09-09T08:24:05.997Z,21.62
2022-09-09T08:26:38.856Z,21.75
2022-09-09T08:29:07.650Z,21.81
2022-09-09T08:31:49.212Z,21.98
2022-09-09T08:34:16.255Z,22.02
2022-09-09T08:36:45.291Z,22.15
2022-09-09T08:39:14.801Z,22.27
2022-09-09T08:41:59.731Z,22.50
2022-09-09T08:44:35.088Z,22.58
2022-09-09T08:47:23.828Z,22.68
2022-09-09T08:50:17.457Z,22.92
2022-09-09T08:53:17.515Z,23.09
2022-09-09T08:55:49.857Z,23.18
2022-09-09T08:58:19.679Z,23.25
2022-09-09T09:01:04.960Z,23.31
2022-09-09T09:03:36.720Z,23.45
2022-09-09T09:06:40.477Z,23.51
2022-09-09T09:09:18.119Z,23.54
2022-09-09T09:12:19.405Z,23.64
2022-09-09T09:14:48.393Z,23.51
2022-09-09T09:17:28.532Z,23.57
2022-09-09T09:19:55.057Z,23.58
2022-09-09T09:22:23.390Z,23.65
2022-09-09T09:25:00.093Z,23.81
2022-09-09T09:27:34.274Z,23.91
2022-09-09T09:30:28.524Z,24.01
2022-09-09T09:33:27.784Z,24.25
2022-09-09T09:35:54.746Z,24.33
2022-09-09T09:41:15.345Z,24.56
2022-09-09T09:43:45.367Z,24.61
2022-09-09T09:46:27.267Z,24.70
2022-09-09T09:49:03.317Z,24.66
2022-09-09T09:51:33.030Z,24.58
2022-09-09T09:54:14.913Z,24.67
2022-09-09T09:56:42.487Z,24.55
2022-09-09T09:59:23.506Z,24.68
2022-09-09T10:02:26.684Z,24.72
2022-09-09T10:05:26.918Z,24.77
2022-09-09T10:08:12.665Z,24.77
2022-09-09T10:10:48.570Z,24.71
2022-09-09T10:13:33.560Z,24.78
2022-09-09T10:16:19.711Z,24.75
2022-09-09T10:19:22.072Z,24.83
2022-09-09T10:22:07.766Z,24.60
2022-09-09T10:24:45.640Z,24.64
2022-09-09T10:27:30.930Z,24.47
2022-09-09T10:30:19.174Z,24.47
2022-09-09T10:33:11.724Z,24.57
2022-09-09T10:35:57.218Z,24.50
2022-09-09T10:38:40.070Z,24.56
2022-09-09T10:41:19.258Z,24.69
2022-09-09T10:44:14.742Z,24.86
2022-09-09T10:47:16.317Z,25.00
2022-09-09T10:50:07.134Z,25.12
2022-09-09T10:53:14.834Z,25.35
2022-09-09T10:55:47.859Z,25.41
2022-09-09T10:58:40.063Z,25.54
2022-09-09T11:01:22.339Z,25.55
2022-09-09T11:03:56.468Z,25.54
2022-09-09T11:06:30.445Z,25.53
2022-09-09T11:09:00.839Z,25.48
2022-09-09T11:11:38.899Z,25.50
2022-09-09T11:14:37.370Z,25.60
2022-09-09T11:17:17.067Z,25.54
2022-09-09T11:19:45.449Z,25.47
2022-09-09T11:22:37.289Z,25.59
2022-09-09T11:25:16.271Z,25.50
2022-09-09T11:28:03.292Z,25.45
2022-09-09T11:30:56.442Z,25.51
2022-09-09T11:33:42.311Z,25.41
2022-09-09T11:36:46.067Z,25.50
2022-09-09T11:39:38.424Z,25.49
2022-09-09T11:42:25.384Z,25.47
2022-09-09T11:44:52.927Z,25.34
2022-09-09T11:47:30.540Z,25.37
2022-09-09T11:50:31.906Z,25.37
2022-09-09T11:53:23.890Z,25.36
2022-09-09T11:56:14.595Z,25.43
2022-09-09T11:58:44.703Z,25.31
2022-09-09T12:01:34.593Z,25.34
2022-09-09T12:04:09.797Z,25.36
2022-09-09T12:06:56.204Z,25.46
2022-09-09T12:09:27.146Z,25.43
2022-09-09T12:11:54.288Z,25.43
2022-09-09T12:14:23.813Z,25.47
2022-09-09T12:16:51.841Z,25.51
2022-09-09T12:19:26.408Z,25.60
2022-09-09T12:22:07.235Z,25.67
2022-09-09T12:24:50.836Z,25.68
2022-09-09T12:27:27.709Z,25.57
2022-09-09T12:30:12.913Z,25.69
2022-09-09T12:32:40.343Z,25.55
2022-09-09T12:35:14.938Z,25.58
2022-09-09T12:37:47.702Z,25.54
2022-09-09T12:40:26.357Z,25.63
2022-09-09T12:42:53.105Z,25.55
2022-09-09T12:45:22.110Z,25.58
2022-09-09T12:48:09.425Z,25.72
2022-09-09T12:50:38.050Z,25.95
2022-09-09T12:53:32.934Z,25.74
2022-09-09T12:56:09.049Z,25.61
2022-09-09T12:58:38.262Z,25.58
2022-09-09T13:01:06.521Z,25.51
2022-09-09T13:03:34.948Z,25.45
2022-09-09T13:06:21.666Z,25.52
2022-09-09T13:08:52.141Z,25.36
2022-09-09T13:11:24.678Z,25.34
2022-09-09T13:13:55.341Z,25.26
2022-09-09T13:16:24.179Z,25.18
2022-09-09T13:18:50.994Z,25.15
2022-09-09T13:21:18.042Z,25.13
2022-09-09T13:23:50.390Z,25.18
2022-09-09T13:26:26.735Z,25.23
2022-09-09T13:29:08.451Z,25.24
2022-09-09T13:31:38.017Z,25.25
2022-09-09T13:34:15.266Z,25.35
2022-09-09T13:36:42.564Z,25.30
2022-09-09T13:39:21.358Z,25.42
2022-09-09T13:41:49.599Z,25.39
2022-09-09T13:44:24.619Z,25.48
2022-09-09T13:47:10.225Z,25.55
2022-09-09T13:49:37.704Z,25.49
2022-09-09T13:52:12.963Z,25.57
2022-09-09T13:54:40.251Z,25.52
2022-09-09T13:57:15.136Z,25.53
2022-09-09T14:00:03.763Z,25.57
2022-09-09T14:02:28.006Z,25.64
2022-09-09T14:04:56.602Z,25.71
2022-09-09T14:07:23.170Z,25.79
2022-09-09T14:09:51.088Z,25.85
2022-09-09T14:12:17.858Z,25.88
2022-09-09T14:14:44.897Z,25.89
2022-09-09T14:17:11.713Z,25.87
2022-09-09T14:19:38.288Z,25.86
2022-09-09T14:22:04.844Z,25.83
2022-09-09T14:24:31.286Z,25.81
2022-09-09T14:26:57.790Z,25.77
2022-09-09T14:29:26.059Z,25.72
2022-09-09T14:31:52.512Z,25.68
2022-09-09T14:34:19.466Z,25.63
2022-09-09T14:36:46.788Z,25.58
2022-09-09T14:39:13.260Z,25.53
2022-09-09T14:41:39.665Z,25.47
2022-09-09T14:44:06.093Z,25.42
2022-09-09T14:46:33.505Z,25.37
2022-09-09T14:49:00.357Z,25.37
2022-09-09T14:51:29.211Z,25.38
2022-09-09T14:53:58.217Z,25.43
2022-09-09T14:56:30.686Z,25.54
2022-09-09T14:58:59.029Z,25.62
2022-09-09T15:01:30.312Z,25.74
2022-09-09T15:03:59.815Z,25.88
2022-09-09T15:06:28.775Z,26.04
2022-09-09T15:08:56.145Z,26.13
2022-09-09T15:11:25.566Z,26.23
2022-09-09T15:13:55.806Z,26.32
2022-09-09T15:16:25.230Z,26.42
2022-09-09T15:18:55.237Z,26.48
2022-09-09T15:21:23.923Z,26.53
2022-09-09T15:23:51.886Z,26.62
2022-09-09T15:26:18.977Z,26.66
2022-09-09T15:28:48.233Z,26.71
2022-09-09T15:31:19.516Z,26.77
2022-09-09T15:34:03.418Z,26.91
2022-09-09T15:36:35.194Z,26.87
2022-09-09T15:39:03.851Z,26.88
2022-09-09T15:41:32.657Z,26.92
2022-09-09T22:45:57.218Z,21.73
2022-09-09T22:48:24.727Z,21.69
2022-09-09T22:50:51.225Z,21.71
2022-09-09T22:53:18.862Z,22.06
2022-09-09T22:56:01.421Z,22.14
2022-09-09T22:58:31.648Z,21.86
2022-09-09T23:00:59.452Z,21.83
2022-09-09T23:03:27.450Z,21.85
2022-09-09T23:05:58.999Z,21.88
2022-09-09T23:08:32.358Z,21.87
2022-09-09T23:11:09.034Z,21.92
2022-09-09T23:13:41.561Z,21.89
2022-09-09T23:16:14.072Z,21.86
2022-09-09T23:18:41.290Z,21.76
2022-09-09T23:21:08.907Z,21.71
2022-09-09T23:23:35.475Z,21.69
2022-09-09T23:26:05.320Z,21.65
2022-09-09T23:28:33.087Z,21.62
2022-09-09T23:30:59.757Z,21.57
2022-09-09T23:33:26.627Z,21.55
2022-09-09T23:36:07.947Z,21.58
2022-09-09T23:38:35.881Z,21.50
2022-09-09T23:41:02.779Z,21.46
2022-09-09T23:43:29.300Z,21.45
2022-09-09T23:45:57.088Z,21.41
2022-09-09T23:48:27.241Z,21.39
2022-09-09T23:50:55.090Z,21.37
2022-09-09T23:53:22.241Z,21.35
2022-09-09T23:55:48.791Z,21.33
2022-09-09T23:58:15.522Z,21.30
